sensor_id;sensor_type;location;lat;lon;timestamp;pressure;altitude;pressure_sealevel;temperature;humidity
49341;BME280;35209;51.050;13.678;2023-02-13T00:04:52;102073.69;;;5.14;100.00
49341;BME280;35209;51.050;13.678;2023-02-13T00:09:54;102065.88;;;5.16;100.00
49341;BME280;35209;51.050;13.678;2023-02-13T00:14:55;102067.09;;;4.92;100.00
49341;BME280;35209;51.050;13.678;2023-02-13T00:19:57;102063.09;;;5.08;100.00
49341;BME280;35209;51.050;13.678;2023-02-13T00:24:59;102058.66;;;5.04;100.00
49341;BME280;35209;51.050;13.678;2023-02-13T00:30:02;102063.75;;;4.99;100.00
49341;BME280;35209;51.050;13.678;2023-02-13T00:35:04;102060.03;;;5.26;100.00
49341;BME280;35209;51.050;13.678;2023-02-13T00:40:07;102055.06;;;4.99;100.00
49341;BME280;35209;51.050;13.678;2023-02-13T00:45:09;102066.09;;;4.87;100.00
49341;BME280;35209;51.050;13.678;2023-02-13T00:50:10;102065.47;;;4.99;100.00
49341;BME280;35209;51.050;13.678;2023-02-13T00:55:14;102058.63;;;5.02;100.00
49341;BME280;35209;51.050;13.678;2023-02-13T01:00:16;102062.78;;;4.94;100.00
49341;BME280;35209;51.050;13.678;2023-02-13T01:05:18;102062.97;;;5.02;100.00
49341;BME280;35209;51.050;13.678;2023-02-13T01:10:21;102063.91;;;5.05;100.00
49341;BME280;35209;51.050;13.678;2023-02-13T01:15:23;102071.75;;;5.05;100.00
49341;BME280;35209;51.050;13.678;2023-02-13T01:20:25;102068.72;;;5.26;100.00
49341;BME280;35209;51.050;13.678;2023-02-13T01:25:27;102060.38;;;5.41;100.00
49341;BME280;35209;51.050;13.678;2023-02-13T01:30:30;102059.25;;;5.71;100.00
49341;BME280;35209;51.050;13.678;2023-02-13T01:35:31;102065.41;;;5.74;100.00
49341;BME280;35209;51.050;13.678;2023-02-13T01:40:33;102052.31;;;5.71;100.00
49341;BME280;35209;51.050;13.678;2023-02-13T01:45:35;102054.25;;;5.81;100.00
49341;BME280;35209;51.050;13.678;2023-02-13T01:50:41;102053.94;;;5.66;100.00
49341;BME280;35209;51.050;13.678;2023-02-13T01:55:49;102042.00;;;5.77;100.00
49341;BME280;35209;51.050;13.678;2023-02-13T02:00:53;102045.47;;;5.76;100.00
49341;BME280;35209;51.050;13.678;2023-02-13T02:05:58;102048.19;;;5.82;100.00
49341;BME280;35209;51.050;13.678;2023-02-13T02:11:11;102044.19;;;5.98;100.00
49341;BME280;35209;51.050;13.678;2023-02-13T02:16:16;102038.50;;;5.77;100.00
49341;BME280;35209;51.050;13.678;2023-02-13T02:21:45;102040.50;;;5.90;100.00
49341;BME280;35209;51.050;13.678;2023-02-13T02:44:07;102036.28;;;5.94;100.00
49341;BME280;35209;51.050;13.678;2023-02-13T02:48:48;102036.88;;;5.82;100.00
49341;BME280;35209;51.050;13.678;2023-02-13T02:54:21;102042.09;;;5.83;100.00
49341;BME280;35209;51.050;13.678;2023-02-13T02:59:45;102049.75;;;5.74;100.00
49341;BME280;35209;51.050;13.678;2023-02-13T03:05:16;102044.50;;;5.73;100.00
49341;BME280;35209;51.050;13.678;2023-02-13T03:10:38;102049.00;;;5.80;100.00
49341;BME280;35209;51.050;13.678;2023-02-13T03:15:59;102044.59;;;5.77;100.00
49341;BME280;35209;51.050;13.678;2023-02-13T03:27:40;102050.22;;;5.53;100.00
49341;BME280;35209;51.050;13.678;2023-02-13T03:32:54;102043.31;;;5.57;100.00
49341;BME280;35209;51.050;13.678;2023-02-13T03:37:54;102054.59;;;5.56;100.00
49341;BME280;35209;51.050;13.678;2023-02-13T03:43:08;102049.38;;;5.56;100.00
49341;BME280;35209;51.050;13.678;2023-02-13T03:48:13;102058.84;;;5.51;100.00
49341;BME280;35209;51.050;13.678;2023-02-13T03:53:37;102052.06;;;5.61;100.00
49341;BME280;35209;51.050;13.678;2023-02-13T03:58:45;102053.84;;;5.62;100.00
49341;BME280;35209;51.050;13.678;2023-02-13T04:04:20;102053.75;;;5.57;100.00
49341;BME280;35209;51.050;13.678;2023-02-13T04:09:26;102051.59;;;5.38;100.00
49341;BME280;35209;51.050;13.678;2023-02-13T04:19:46;102052.00;;;5.57;100.00
49341;BME280;35209;51.050;13.678;2023-02-13T04:24:48;102061.63;;;5.60;100.00
49341;BME280;35209;51.050;13.678;2023-02-13T04:29:49;102049.19;;;5.47;100.00
49341;BME280;35209;51.050;13.678;2023-02-13T04:34:51;102053.34;;;5.39;100.00
49341;BME280;35209;51.050;13.678;2023-02-13T04:39:53;102053.59;;;5.49;100.00
49341;BME280;35209;51.050;13.678;2023-02-13T04:44:54;102047.44;;;5.46;100.00
49341;BME280;35209;51.050;13.678;2023-02-13T04:49:56;102046.34;;;5.36;100.00
49341;BME280;35209;51.050;13.678;2023-02-13T04:54:58;102047.53;;;5.50;100.00
49341;BME280;35209;51.050;13.678;2023-02-13T04:59:59;102043.78;;;5.39;100.00
49341;BME280;35209;51.050;13.678;2023-02-13T05:05:01;102036.84;;;5.40;100.00
49341;BME280;35209;51.050;13.678;2023-02-13T05:10:03;102039.22;;;5.27;100.00
49341;BME280;35209;51.050;13.678;2023-02-13T05:15:05;102041.63;;;5.18;100.00
49341;BME280;35209;51.050;13.678;2023-02-13T05:20:07;102036.50;;;5.23;100.00
49341;BME280;35209;51.050;13.678;2023-02-13T05:25:09;102053.06;;;5.26;100.00
49341;BME280;35209;51.050;13.678;2023-02-13T05:30:12;102046.09;;;5.24;100.00
49341;BME280;35209;51.050;13.678;2023-02-13T05:35:13;102046.16;;;5.27;100.00
49341;BME280;35209;51.050;13.678;2023-02-13T05:40:16;102047.97;;;5.31;100.00
49341;BME280;35209;51.050;13.678;2023-02-13T05:45:17;102048.72;;;5.25;100.00
49341;BME280;35209;51.050;13.678;2023-02-13T05:50:19;102047.56;;;5.13;100.00
49341;BME280;35209;51.050;13.678;2023-02-13T05:55:21;102049.38;;;5.17;100.00
49341;BME280;35209;51.050;13.678;2023-02-13T06:00:23;102051.19;;;5.19;100.00
49341;BME280;35209;51.050;13.678;2023-02-13T06:05:25;102054.75;;;5.23;100.00
49341;BME280;35209;51.050;13.678;2023-02-13T06:10:27;102054.56;;;5.14;100.00
49341;BME280;35209;51.050;13.678;2023-02-13T06:15:28;102052.72;;;5.10;100.00
49341;BME280;35209;51.050;13.678;2023-02-13T06:20:30;102059.91;;;5.20;100.00
49341;BME280;35209;51.050;13.678;2023-02-13T06:25:34;102066.78;;;5.18;100.00
49341;BME280;35209;51.050;13.678;2023-02-13T06:30:36;102061.31;;;5.05;100.00
49341;BME280;35209;51.050;13.678;2023-02-13T06:35:38;102071.13;;;5.17;100.00
49341;BME280;35209;51.050;13.678;2023-02-13T06:40:40;102081.28;;;5.05;100.00
49341;BME280;35209;51.050;13.678;2023-02-13T06:45:41;102084.88;;;5.10;100.00
49341;BME280;35209;51.050;13.678;2023-02-13T06:50:44;102078.16;;;5.20;100.00
49341;BME280;35209;51.050;13.678;2023-02-13T06:55:45;102086.84;;;5.20;100.00
49341;BME280;35209;51.050;13.678;2023-02-13T07:00:48;102088.47;;;5.15;100.00
49341;BME280;35209;51.050;13.678;2023-02-13T07:05:50;102086.56;;;5.08;100.00
49341;BME280;35209;51.050;13.678;2023-02-13T07:10:52;102094.53;;;5.14;100.00
49341;BME280;35209;51.050;13.678;2023-02-13T07:15:54;102101.50;;;5.15;100.00
49341;BME280;35209;51.050;13.678;2023-02-13T07:20:58;102098.53;;;5.38;100.00
49341;BME280;35209;51.050;13.678;2023-02-13T07:26:00;102097.47;;;5.28;100.00
49341;BME280;35209;51.050;13.678;2023-02-13T07:31:03;102105.09;;;5.20;100.00
49341;BME280;35209;51.050;13.678;2023-02-13T07:36:09;102099.97;;;5.23;100.00
49341;BME280;35209;51.050;13.678;2023-02-13T07:41:10;102096.41;;;5.21;100.00
49341;BME280;35209;51.050;13.678;2023-02-13T07:46:12;102099.97;;;5.23;100.00
49341;BME280;35209;51.050;13.678;2023-02-13T07:51:14;102089.44;;;5.19;100.00
49341;BME280;35209;51.050;13.678;2023-02-13T07:56:17;102097.03;;;5.10;100.00
49341;BME280;35209;51.050;13.678;2023-02-13T08:01:19;102100.06;;;5.28;100.00
49341;BME280;35209;51.050;13.678;2023-02-13T08:06:21;102107.94;;;5.31;100.00
49341;BME280;35209;51.050;13.678;2023-02-13T08:11:32;102107.38;;;5.44;100.00
49341;BME280;35209;51.050;13.678;2023-02-13T08:16:53;102120.50;;;5.49;100.00
49341;BME280;35209;51.050;13.678;2023-02-13T08:21:55;102111.69;;;5.42;100.00
49341;BME280;35209;51.050;13.678;2023-02-13T08:26:57;102116.03;;;5.43;100.00
49341;BME280;35209;51.050;13.678;2023-02-13T08:31:59;102121.72;;;5.63;100.00
49341;BME280;35209;51.050;13.678;2023-02-13T08:37:02;102123.28;;;5.55;100.00
49341;BME280;35209;51.050;13.678;2023-02-13T08:42:04;102122.22;;;5.86;100.00
49341;BME280;35209;51.050;13.678;2023-02-13T08:47:06;102131.66;;;5.81;100.00
49341;BME280;35209;51.050;13.678;2023-02-13T08:52:08;102128.50;;;5.94;100.00
49341;BME280;35209;51.050;13.678;2023-02-13T08:57:09;102124.13;;;5.93;100.00
49341;BME280;35209;51.050;13.678;2023-02-13T09:02:11;102126.09;;;6.03;100.00
49341;BME280;35209;51.050;13.678;2023-02-13T09:07:13;102136.03;;;5.82;100.00
49341;BME280;35209;51.050;13.678;2023-02-13T09:12:15;102142.78;;;5.72;100.00
49341;BME280;35209;51.050;13.678;2023-02-13T09:17:17;102135.13;;;5.80;100.00
49341;BME280;35209;51.050;13.678;2023-02-13T09:22:20;102137.31;;;5.99;100.00
49341;BME280;35209;51.050;13.678;2023-02-13T09:27:21;102141.66;;;6.00;100.00
49341;BME280;35209;51.050;13.678;2023-02-13T09:32:23;102139.31;;;6.13;100.00
49341;BME280;35209;51.050;13.678;2023-02-13T09:37:26;102137.50;;;6.10;100.00
49341;BME280;35209;51.050;13.678;2023-02-13T09:42:31;102136.78;;;6.16;100.00
49341;BME280;35209;51.050;13.678;2023-02-13T09:47:36;102144.00;;;6.29;100.00
49341;BME280;35209;51.050;13.678;2023-02-13T09:52:42;102144.34;;;6.47;100.00
49341;BME280;35209;51.050;13.678;2023-02-13T10:03:43;102161.88;;;6.54;100.00
49341;BME280;35209;51.050;13.678;2023-02-13T10:24:47;102154.25;;;6.65;100.00
49341;BME280;35209;51.050;13.678;2023-02-13T10:40:38;102138.88;;;6.82;100.00
49341;BME280;35209;51.050;13.678;2023-02-13T10:46:10;102130.78;;;6.68;100.00
49341;BME280;35209;51.050;13.678;2023-02-13T10:51:44;102126.94;;;6.98;100.00
49341;BME280;35209;51.050;13.678;2023-02-13T10:57:14;102113.41;;;7.25;96.67
49341;BME280;35209;51.050;13.678;2023-02-13T11:07:25;102114.88;;;7.07;96.58
49341;BME280;35209;51.050;13.678;2023-02-13T11:12:30;102109.56;;;7.03;95.21
49341;BME280;35209;51.050;13.678;2023-02-13T11:17:38;102109.06;;;6.71;99.38
49341;BME280;35209;51.050;13.678;2023-02-13T11:22:41;102109.94;;;6.73;98.77
49341;BME280;35209;51.050;13.678;2023-02-13T11:27:44;102112.03;;;6.92;97.42
49341;BME280;35209;51.050;13.678;2023-02-13T11:43:29;102098.09;;;6.92;95.76
49341;BME280;35209;51.050;13.678;2023-02-13T11:48:34;102089.91;;;6.72;97.92
49341;BME280;35209;51.050;13.678;2023-02-13T11:53:45;102089.09;;;6.76;96.45
49341;BME280;35209;51.050;13.678;2023-02-13T11:59:01;102083.56;;;7.11;94.30
49341;BME280;35209;51.050;13.678;2023-02-13T12:04:12;102078.19;;;7.01;96.64
49341;BME280;35209;51.050;13.678;2023-02-13T12:09:17;102079.19;;;7.10;94.48
49341;BME280;35209;51.050;13.678;2023-02-13T12:14:21;102073.53;;;7.41;90.73
49341;BME280;35209;51.050;13.678;2023-02-13T12:19:45;102073.28;;;7.24;94.62
49341;BME280;35209;51.050;13.678;2023-02-13T12:25:11;102063.00;;;7.38;91.81
49341;BME280;35209;51.050;13.678;2023-02-13T12:30:28;102052.00;;;7.62;92.41
49341;BME280;35209;51.050;13.678;2023-02-13T12:41:21;102041.91;;;7.96;90.16
49341;BME280;35209;51.050;13.678;2023-02-13T12:52:30;102031.13;;;7.68;83.63
49341;BME280;35209;51.050;13.678;2023-02-13T13:02:50;102047.38;;;7.41;85.96
49341;BME280;35209;51.050;13.678;2023-02-13T13:23:45;102042.38;;;6.97;88.69
49341;BME280;35209;51.050;13.678;2023-02-13T13:28:52;102045.22;;;7.13;87.77
49341;BME280;35209;51.050;13.678;2023-02-13T13:34:01;102045.19;;;7.11;88.80
49341;BME280;35209;51.050;13.678;2023-02-13T13:39:13;102049.41;;;7.00;89.85
49341;BME280;35209;51.050;13.678;2023-02-13T13:49:54;102053.19;;;7.20;87.40
49341;BME280;35209;51.050;13.678;2023-02-13T13:54:57;102047.88;;;7.14;86.24
49341;BME280;35209;51.050;13.678;2023-02-13T14:00:20;102047.63;;;6.97;85.25
49341;BME280;35209;51.050;13.678;2023-02-13T14:26:09;102053.88;;;6.52;88.55
49341;BME280;35209;51.050;13.678;2023-02-13T14:36:21;102041.09;;;6.69;88.15
49341;BME280;35209;51.050;13.678;2023-02-13T14:46:53;102042.31;;;6.40;91.66
49341;BME280;35209;51.050;13.678;2023-02-13T14:51:58;102028.47;;;6.44;90.55
49341;BME280;35209;51.050;13.678;2023-02-13T14:57:15;102019.44;;;6.26;92.33
49341;BME280;35209;51.050;13.678;2023-02-13T15:02:27;102027.28;;;6.26;92.87
49341;BME280;35209;51.050;13.678;2023-02-13T15:08:04;102015.09;;;6.25;93.00
49341;BME280;35209;51.050;13.678;2023-02-13T15:13:02;102005.50;;;6.24;93.36
49341;BME280;35209;51.050;13.678;2023-02-13T15:18:10;102000.84;;;6.08;94.59
49341;BME280;35209;51.050;13.678;2023-02-13T15:23:22;102000.06;;;6.12;94.98
49341;BME280;35209;51.050;13.678;2023-02-13T15:28:25;101997.34;;;6.07;95.54
49341;BME280;35209;51.050;13.678;2023-02-13T15:33:33;101997.38;;;6.09;95.54
49341;BME280;35209;51.050;13.678;2023-02-13T15:38:37;101988.56;;;6.02;96.31
49341;BME280;35209;51.050;13.678;2023-02-13T15:43:42;101978.59;;;5.83;98.40
49341;BME280;35209;51.050;13.678;2023-02-13T15:48:45;101984.47;;;5.71;99.76
49341;BME280;35209;51.050;13.678;2023-02-13T15:53:52;101975.03;;;5.79;99.27
49341;BME280;35209;51.050;13.678;2023-02-13T15:58:55;101992.31;;;5.73;99.15
49341;BME280;35209;51.050;13.678;2023-02-13T16:04:05;101999.19;;;5.68;99.88
49341;BME280;35209;51.050;13.678;2023-02-13T16:09:31;101992.31;;;5.71;99.27
49341;BME280;35209;51.050;13.678;2023-02-13T16:14:36;101989.41;;;5.57;100.00
49341;BME280;35209;51.050;13.678;2023-02-13T16:19:51;101980.66;;;5.54;100.00
49341;BME280;35209;51.050;13.678;2023-02-13T16:35:35;101988.38;;;5.49;100.00
49341;BME280;35209;51.050;13.678;2023-02-13T16:40:42;101988.38;;;5.49;100.00
49341;BME280;35209;51.050;13.678;2023-02-13T16:45:44;101991.03;;;5.52;100.00
49341;BME280;35209;51.050;13.678;2023-02-13T16:50:54;101988.38;;;5.49;100.00
49341;BME280;35209;51.050;13.678;2023-02-13T16:56:01;101988.34;;;5.48;100.00
49341;BME280;35209;51.050;13.678;2023-02-13T17:01:04;101976.94;;;5.44;100.00
49341;BME280;35209;51.050;13.678;2023-02-13T17:06:08;101981.97;;;5.34;100.00
49341;BME280;35209;51.050;13.678;2023-02-13T17:11:16;101978.66;;;5.42;100.00
49341;BME280;35209;51.050;13.678;2023-02-13T17:16:19;101975.84;;;5.31;100.00
49341;BME280;35209;51.050;13.678;2023-02-13T17:21:21;101970.63;;;5.31;100.00
49341;BME280;35209;51.050;13.678;2023-02-13T17:26:22;101959.38;;;5.34;100.00
49341;BME280;35209;51.050;13.678;2023-02-13T17:31:24;101957.53;;;5.30;100.00
49341;BME280;35209;51.050;13.678;2023-02-13T17:36:26;101964.28;;;5.19;100.00
49341;BME280;35209;51.050;13.678;2023-02-13T17:41:28;101958.38;;;5.27;100.00
49341;BME280;35209;51.050;13.678;2023-02-13T17:46:30;101963.63;;;5.29;100.00
49341;BME280;35209;51.050;13.678;2023-02-13T17:51:32;101972.50;;;5.39;100.00
49341;BME280;35209;51.050;13.678;2023-02-13T17:56:34;101981.75;;;5.23;100.00
49341;BME280;35209;51.050;13.678;2023-02-13T18:01:36;101969.59;;;5.23;100.00
49341;BME280;35209;51.050;13.678;2023-02-13T18:06:37;101958.56;;;5.37;100.00
49341;BME280;35209;51.050;13.678;2023-02-13T18:11:39;101964.56;;;5.32;100.00
49341;BME280;35209;51.050;13.678;2023-02-13T18:16:41;101984.47;;;5.29;100.00
49341;BME280;35209;51.050;13.678;2023-02-13T18:21:43;101987.00;;;5.26;100.00
49341;BME280;35209;51.050;13.678;2023-02-13T18:26:44;101984.94;;;5.10;100.00
49341;BME280;35209;51.050;13.678;2023-02-13T18:31:46;101988.06;;;4.95;100.00
49341;BME280;35209;51.050;13.678;2023-02-13T18:36:49;101977.75;;;4.99;100.00
49341;BME280;35209;51.050;13.678;2023-02-13T18:41:51;101987.69;;;4.78;100.00
49341;BME280;35209;51.050;13.678;2023-02-13T18:46:52;101989.47;;;4.79;100.00
49341;BME280;35209;51.050;13.678;2023-02-13T18:51:54;101969.56;;;4.83;100.00
49341;BME280;35209;51.050;13.678;2023-02-13T18:56:56;101959.88;;;4.77;100.00
49341;BME280;35209;51.050;13.678;2023-02-13T19:01:58;101957.09;;;5.09;100.00
49341;BME280;35209;51.050;13.678;2023-02-13T19:07:02;101956.06;;;5.00;100.00
49341;BME280;35209;51.050;13.678;2023-02-13T19:12:05;101960.34;;;4.98;100.00
49341;BME280;35209;51.050;13.678;2023-02-13T19:17:09;101953.50;;;5.03;100.00
49341;BME280;35209;51.050;13.678;2023-02-13T19:22:11;101948.84;;;4.89;100.00
49341;BME280;35209;51.050;13.678;2023-02-13T19:27:14;101953.13;;;4.85;100.00
49341;BME280;35209;51.050;13.678;2023-02-13T19:32:16;101952.56;;;5.00;100.00
49341;BME280;35209;51.050;13.678;2023-02-13T19:37:18;101966.88;;;5.19;100.00
49341;BME280;35209;51.050;13.678;2023-02-13T19:42:20;101979.97;;;5.22;100.00
49341;BME280;35209;51.050;13.678;2023-02-13T19:47:22;101987.06;;;4.88;100.00
49341;BME280;35209;51.050;13.678;2023-02-13T19:52:24;101984.94;;;5.10;100.00
49341;BME280;35209;51.050;13.678;2023-02-13T19:57:26;101999.81;;;4.77;100.00
49341;BME280;35209;51.050;13.678;2023-02-13T20:02:28;101997.88;;;4.69;100.00
49341;BME280;35209;51.050;13.678;2023-02-13T20:07:30;101984.09;;;4.73;100.00
49341;BME280;35209;51.050;13.678;2023-02-13T20:12:34;101992.63;;;4.66;100.00
49341;BME280;35209;51.050;13.678;2023-02-13T20:17:36;101995.16;;;4.63;100.00
49341;BME280;35209;51.050;13.678;2023-02-13T20:22:39;101993.72;;;4.75;100.00
49341;BME280;35209;51.050;13.678;2023-02-13T20:27:42;102001.75;;;4.85;100.00
49341;BME280;35209;51.050;13.678;2023-02-13T20:32:47;102011.28;;;4.84;100.00
49341;BME280;35209;51.050;13.678;2023-02-13T20:37:49;102002.75;;;4.91;100.00
49341;BME280;35209;51.050;13.678;2023-02-13T20:42:52;102004.25;;;5.19;100.00
49341;BME280;35209;51.050;13.678;2023-02-13T20:47:53;102005.13;;;5.18;100.00
49341;BME280;35209;51.050;13.678;2023-02-13T20:52:55;102000.44;;;5.03;100.00
49341;BME280;35209;51.050;13.678;2023-02-13T20:57:57;101998.94;;;5.15;100.00
49341;BME280;35209;51.050;13.678;2023-02-13T21:02:59;102015.66;;;4.85;100.00
49341;BME280;35209;51.050;13.678;2023-02-13T21:08:01;102020.66;;;4.76;100.00
49341;BME280;35209;51.050;13.678;2023-02-13T21:13:03;102010.53;;;4.88;100.00
49341;BME280;35209;51.050;13.678;2023-02-13T21:18:05;101996.28;;;5.13;100.00
49341;BME280;35209;51.050;13.678;2023-02-13T21:23:07;102005.31;;;4.88;100.00
49341;BME280;35209;51.050;13.678;2023-02-13T21:28:09;102004.13;;;4.75;100.00
49341;BME280;35209;51.050;13.678;2023-02-13T21:33:10;102011.03;;;4.73;100.00
49341;BME280;35209;51.050;13.678;2023-02-13T21:38:12;102005.59;;;4.64;100.00
49341;BME280;35209;51.050;13.678;2023-02-13T21:43:14;102003.00;;;4.64;100.00
49341;BME280;35209;51.050;13.678;2023-02-13T21:48:16;101997.13;;;4.73;100.00
49341;BME280;35209;51.050;13.678;2023-02-13T21:53:17;102005.53;;;4.61;100.00
49341;BME280;35209;51.050;13.678;2023-02-13T21:58:19;102007.06;;;4.53;100.00
49341;BME280;35209;51.050;13.678;2023-02-13T22:03:21;101999.38;;;4.58;100.00
49341;BME280;35209;51.050;13.678;2023-02-13T22:08:22;102003.72;;;4.57;100.00
49341;BME280;35209;51.050;13.678;2023-02-13T22:13:25;102007.50;;;4.70;100.00
49341;BME280;35209;51.050;13.678;2023-02-13T22:18:32;102011.63;;;4.62;100.00
49341;BME280;35209;51.050;13.678;2023-02-13T22:23:35;102016.72;;;4.57;100.00
49341;BME280;35209;51.050;13.678;2023-02-13T22:28:37;102013.38;;;4.63;100.00
49341;BME280;35209;51.050;13.678;2023-02-13T22:33:39;102027.25;;;4.62;100.00
49341;BME280;35209;51.050;13.678;2023-02-13T22:38:43;102029.00;;;4.63;100.00
49341;BME280;35209;51.050;13.678;2023-02-13T22:43:45;102027.94;;;4.91;100.00
49341;BME280;35209;51.050;13.678;2023-02-13T22:48:47;102025.63;;;5.03;100.00
49341;BME280;35209;51.050;13.678;2023-02-13T22:53:52;102034.53;;;4.75;100.00
49341;BME280;35209;51.050;13.678;2023-02-13T22:58:54;102034.88;;;4.90;100.00
49341;BME280;35209;51.050;13.678;2023-02-13T23:03:56;102039.75;;;4.76;100.00
49341;BME280;35209;51.050;13.678;2023-02-13T23:08:58;102044.28;;;4.84;100.00
49341;BME280;35209;51.050;13.678;2023-02-13T23:14:00;102052.00;;;4.79;100.00
49341;BME280;35209;51.050;13.678;2023-02-13T23:19:01;102048.66;;;4.85;100.00
49341;BME280;35209;51.050;13.678;2023-02-13T23:24:03;102059.63;;;4.71;100.00
49341;BME280;35209;51.050;13.678;2023-02-13T23:29:05;102048.47;;;4.77;100.00
49341;BME280;35209;51.050;13.678;2023-02-13T23:34:07;102053.97;;;4.89;100.00
49341;BME280;35209;51.050;13.678;2023-02-13T23:39:09;102055.56;;;4.83;100.00
49341;BME280;35209;51.050;13.678;2023-02-13T23:44:11;102042.69;;;4.90;100.00
49341;BME280;35209;51.050;13.678;2023-02-13T23:49:13;102044.06;;;4.74;100.00
49341;BME280;35209;51.050;13.678;2023-02-13T23:54:16;102042.22;;;4.70;100.00
49341;BME280;35209;51.050;13.678;2023-02-13T23:59:19;102035.31;;;4.72;100.00
